Time;durP1;ratioP1;P1;durP2;ratioP2;P2;SDS_P1;SDS_P2;PMS_P1;PMS_P2;Temp;Humidity;BMP_temperature;BMP_pressure;BME280_temperature;BME280_humidity;BME280_pressure;Samples;Min_cycle;Max_cycle;Signal;HPM_P1;HPM_P2
2023/12/16 00:00:59;;;;;;;5.05;2.83;;;;;;;1.81;100.00;101211.78;5050518;28;20036;-81
2023/12/16 00:03:26;;;;;;;5.18;2.42;;;;;;;1.80;100.00;101214.56;5051015;28;20029;-81
2023/12/16 00:05:53;;;;;;;5.53;3.15;;;;;;;1.80;100.00;101204.88;5050971;28;20032;-80
2023/12/16 00:08:18;;;;;;;6.25;3.22;;;;;;;1.80;100.00;101193.53;5049471;28;20033;-80
2023/12/16 00:10:44;;;;;;;4.88;2.78;;;;;;;1.88;100.00;101183.19;5049521;28;20261;-81
2023/12/16 00:13:09;;;;;;;6.90;3.25;;;;;;;2.32;100.00;101207.34;5048126;28;20074;-81
2023/12/16 00:15:35;;;;;;;6.78;2.65;;;;;;;2.36;100.00;101203.47;5040331;28;20039;-82
2023/12/16 00:18:00;;;;;;;4.80;2.30;;;;;;;2.57;100.00;101203.31;5049644;28;20029;-84
2023/12/16 00:20:26;;;;;;;5.40;2.85;;;;;;;2.53;100.00;101191.41;5049789;28;20032;-81
2023/12/16 00:22:51;;;;;;;3.85;2.13;;;;;;;2.69;100.00;101197.94;5051775;28;20389;-81
2023/12/16 00:25:17;;;;;;;3.65;1.70;;;;;;;2.76;100.00;101194.59;5037973;28;20029;-81
2023/12/16 00:27:42;;;;;;;3.33;1.60;;;;;;;2.72;100.00;101201.13;5053660;28;20025;-82
2023/12/16 00:30:11;;;;;;;3.28;1.80;;;;;;;2.72;100.00;101205.56;5055259;28;20111;-83
2023/12/16 00:32:39;;;;;;;;;;;;;;;2.65;100.00;101204.44;5054700;28;20059;-81
2023/12/16 00:35:08;;;;;;;3.42;2.30;;;;;;;2.49;100.00;101200.56;5051778;28;19916;-81
2023/12/16 00:37:33;;;;;;;3.83;1.90;;;;;;;2.37;100.00;101180.59;5054040;28;20031;-82
2023/12/16 00:39:59;;;;;;;4.00;1.70;;;;;;;2.44;100.00;101204.59;5054046;28;20032;-82
2023/12/16 00:42:24;;;;;;;3.80;1.60;;;;;;;2.50;100.00;101217.19;5053526;28;20021;-84
2023/12/16 00:44:50;;;;;;;3.53;1.90;;;;;;;2.47;100.00;101218.28;5042077;28;20044;-82
2023/12/16 00:47:15;;;;;;;3.22;1.90;;;;;;;2.45;100.00;101233.38;5054479;28;20056;-82
2023/12/16 00:49:40;;;;;;;3.95;1.70;;;;;;;2.63;100.00;101244.09;5053128;28;20036;-83
2023/12/16 00:52:06;;;;;;;4.70;2.20;;;;;;;2.69;100.00;101251.44;5053496;28;20150;-81
2023/12/16 00:54:31;;;;;;;4.25;1.90;;;;;;;2.55;100.00;101247.41;5053429;28;20041;-86
2023/12/16 00:56:57;;;;;;;3.90;1.98;;;;;;;2.51;100.00;101232.84;5051077;28;20413;-86
2023/12/16 00:59:23;;;;;;;3.53;1.90;;;;;;;2.53;100.00;101248.50;5054259;28;20170;-85
2023/12/16 01:01:49;;;;;;;3.53;1.63;;;;;;;2.13;100.00;101221.31;5054650;28;20064;-85
2023/12/16 01:04:14;;;;;;;3.00;1.50;;;;;;;2.44;100.00;101265.16;5054248;28;20421;-86
2023/12/16 01:06:39;;;;;;;3.65;1.65;;;;;;;2.30;100.00;101227.69;5054392;28;20037;-86
2023/12/16 01:09:05;;;;;;;3.03;1.50;;;;;;;2.47;100.00;101249.06;5054769;28;20036;-87
2023/12/16 01:11:30;;;;;;;2.42;1.33;;;;;;;2.51;100.00;101255.72;5054121;28;20116;-88
2023/12/16 01:13:56;;;;;;;2.92;1.50;;;;;;;2.54;100.00;101229.13;5052816;28;20032;-88
2023/12/16 01:16:21;;;;;;;2.53;1.42;;;;;;;2.61;100.00;101259.19;5045998;28;20033;-86
2023/12/16 01:18:47;;;;;;;2.88;1.30;;;;;;;2.47;100.00;101259.59;5054301;28;20033;-86
2023/12/16 01:21:12;;;;;;;3.35;1.40;;;;;;;2.30;100.00;101264.56;5054465;28;20119;-86
2023/12/16 01:23:38;;;;;;;2.00;1.10;;;;;;;2.36;100.00;101240.31;5054505;28;20036;-87
2023/12/16 01:26:04;;;;;;;2.75;1.30;;;;;;;2.26;100.00;101231.56;5042391;28;20056;-86
2023/12/16 01:28:30;;;;;;;6.20;2.40;;;;;;;2.11;100.00;101215.34;5053033;28;20025;-86
2023/12/16 01:30:56;;;;;;;5.32;2.60;;;;;;;2.21;100.00;101231.16;5053183;28;20055;-87
2023/12/16 01:33:21;;;;;;;6.95;2.50;;;;;;;2.16;100.00;101223.66;5053970;28;20052;-85
2023/12/16 01:35:47;;;;;;;3.97;1.58;;;;;;;2.12;100.00;101219.63;5051895;28;20086;-85
2023/12/16 01:38:12;;;;;;;4.03;1.95;;;;;;;2.03;100.00;101209.94;5052845;28;20039;-85
2023/12/16 01:40:37;;;;;;;3.67;1.75;;;;;;;2.16;100.00;101243.88;5053655;28;20036;-87
2023/12/16 01:43:04;;;;;;;4.45;1.88;;;;;;;2.10;100.00;101252.31;5053541;28;20025;-85
2023/12/16 01:45:29;;;;;;;2.88;1.52;;;;;;;1.71;100.00;101158.31;5041238;28;20052;-85
2023/12/16 01:47:55;;;;;;;1.88;1.13;;;;;;;2.21;100.00;101250.41;5050754;28;20502;-85
2023/12/16 01:50:21;;;;;;;1.90;1.10;;;;;;;2.08;100.00;101230.56;5053444;28;20028;-85
2023/12/16 01:52:47;;;;;;;1.55;1.17;;;;;;;2.01;100.00;101202.16;5053213;28;20020;-85
2023/12/16 01:55:13;;;;;;;1.92;1.40;;;;;;;2.25;100.00;101240.44;5053280;28;20074;-85
2023/12/16 01:57:40;;;;;;;3.42;1.60;;;;;;;2.06;100.00;101232.50;5052406;28;20081;-85
2023/12/16 02:00:06;;;;;;;3.35;1.80;;;;;;;2.28;100.00;101229.63;5053664;28;20036;-86
2023/12/16 02:02:32;;;;;;;2.97;1.85;;;;;;;2.21;100.00;101229.34;5052989;28;20040;-87
2023/12/16 02:04:58;;;;;;;3.60;1.77;;;;;;;2.06;100.00;101211.44;5048019;28;20033;-85
2023/12/16 02:07:24;;;;;;;3.70;2.00;;;;;;;2.33;100.00;101240.59;5036534;28;20029;-84
2023/12/16 02:09:49;;;;;;;3.55;2.25;;;;;;;2.18;100.00;101211.19;5032473;28;20120;-83
2023/12/16 02:12:15;;;;;;;2.70;1.67;;;;;;;2.12;100.00;101224.06;5032603;28;20482;-84
2023/12/16 02:14:40;;;;;;;3.63;1.98;;;;;;;2.38;100.00;101242.81;5034144;28;20084;-87
2023/12/16 02:17:06;;;;;;;3.75;2.05;;;;;;;2.28;100.00;101224.38;5049626;28;20021;-85
2023/12/16 02:19:32;;;;;;;3.53;2.03;;;;;;;2.40;100.00;101254.03;5052586;28;20041;-82
2023/12/16 02:21:59;;;;;;;4.03;2.33;;;;;;;2.15;100.00;101222.00;5053967;28;20033;-83
2023/12/16 02:24:26;;;;;;;4.20;2.30;;;;;;;2.32;100.00;101252.09;5052019;28;20025;-84
2023/12/16 02:26:52;;;;;;;3.97;2.42;;;;;;;2.25;100.00;101234.31;5048122;28;20108;-84
2023/12/16 02:29:17;;;;;;;4.10;2.30;;;;;;;2.18;100.00;101236.69;5032466;28;20036;-84
2023/12/16 02:31:42;;;;;;;4.03;2.00;;;;;;;1.87;100.00;101230.66;5033547;28;20045;-85
2023/12/16 02:34:08;;;;;;;3.42;1.92;;;;;;;1.91;100.00;101232.88;5033175;28;20355;-86
2023/12/16 02:36:34;;;;;;;3.97;2.10;;;;;;;2.15;100.00;101250.94;5047732;28;20127;-87
2023/12/16 02:38:59;;;;;;;3.65;2.20;;;;;;;2.08;100.00;101265.59;5053339;28;20028;-88
2023/12/16 02:41:24;;;;;;;3.88;1.83;;;;;;;2.19;100.00;101268.13;5052587;28;20048;-90
2023/12/16 02:43:50;;;;;;;4.03;1.90;;;;;;;2.25;100.00;101273.81;5052597;28;20028;-87
2023/12/16 02:46:15;;;;;;;3.72;1.92;;;;;;;2.00;100.00;101247.00;5052529;28;20041;-88
2023/12/16 02:48:41;;;;;;;4.22;1.90;;;;;;;2.10;100.00;101241.78;5031787;28;20025;-87
2023/12/16 02:51:15;;;;;;;3.92;2.08;;;;;;;2.03;100.00;101243.31;5032621;28;20041;-88
2023/12/16 02:53:40;;;;;;;4.72;2.20;;;;;;;2.08;100.00;101255.06;5032535;28;20035;-88
2023/12/16 02:56:06;;;;;;;4.25;2.45;;;;;;;1.96;100.00;101261.41;5041260;28;20024;-87
2023/12/16 02:58:31;;;;;;;6.07;2.75;;;;;;;2.32;100.00;101282.84;5038452;28;20045;-88
2023/12/16 03:00:58;;;;;;;6.13;3.03;;;;;;;1.90;100.00;101268.06;5033275;28;20025;-88
2023/12/16 03:03:24;;;;;;;4.97;2.83;;;;;;;1.85;100.00;101275.50;5033555;28;20048;-86
2023/12/16 03:05:49;;;;;;;5.95;3.50;;;;;;;2.01;100.00;101296.88;5038155;28;20413;-86
2023/12/16 03:08:14;;;;;;;4.25;2.50;;;;;;;1.91;100.00;101310.97;5042427;28;20104;-86
2023/12/16 03:10:40;;;;;;;5.40;3.00;;;;;;;1.94;100.00;101308.91;5033572;28;20025;-86
2023/12/16 03:13:06;;;;;;;6.45;2.92;;;;;;;1.74;100.00;101280.84;5032933;28;20036;-87
2023/12/16 03:15:31;;;;;;;5.55;2.97;;;;;;;1.97;100.00;101299.91;5035095;28;20098;-86
2023/12/16 03:17:57;;;;;;;4.70;2.88;;;;;;;1.82;100.00;101302.06;5049868;28;20033;-86
2023/12/16 03:20:22;;;;;;;5.75;3.20;;;;;;;1.94;100.00;101316.81;5053491;28;20029;-87
2023/12/16 03:22:48;;;;;;;5.00;2.88;;;;;;;1.80;100.00;101319.78;5052964;28;20037;-85
2023/12/16 03:25:14;;;;;;;7.45;3.30;;;;;;;1.79;100.00;101307.59;5053705;28;20021;-87
2023/12/16 03:27:39;;;;;;;5.80;2.97;;;;;;;1.79;100.00;101313.66;5051993;28;20047;-88
2023/12/16 03:30:05;;;;;;;6.15;3.17;;;;;;;1.63;100.00;101296.69;5053203;28;20029;-89
2023/12/16 03:32:30;;;;;;;5.50;3.10;;;;;;;1.79;100.00;101320.72;5052441;28;20085;-88
2023/12/16 03:34:56;;;;;;;5.13;2.85;;;;;;;1.79;100.00;101332.06;5052006;28;20459;-86
2023/12/16 03:37:22;;;;;;;5.22;2.70;;;;;;;1.94;100.00;101343.13;5053663;28;20033;-87
2023/12/16 03:39:48;;;;;;;5.60;2.85;;;;;;;2.03;100.00;101335.41;5052519;28;20053;-88
2023/12/16 03:42:14;;;;;;;5.20;2.58;;;;;;;1.97;100.00;101342.00;5051815;28;20028;-89
2023/12/16 03:44:41;;;;;;;4.68;2.47;;;;;;;1.91;100.00;101351.25;5052505;28;20036;-88
2023/12/16 03:47:07;;;;;;;5.17;2.67;;;;;;;2.04;100.00;101353.66;5040102;28;20029;-87
2023/12/16 03:49:32;;;;;;;5.70;2.90;;;;;;;1.86;100.00;101324.53;5051963;28;20271;-88
2023/12/16 03:51:58;;;;;;;5.88;3.20;;;;;;;1.96;100.00;101351.72;5051859;28;20052;-86
2023/12/16 03:54:23;;;;;;;5.93;3.05;;;;;;;1.97;100.00;101363.06;5052941;28;20021;-87
2023/12/16 03:56:48;;;;;;;4.85;2.70;;;;;;;1.97;100.00;101355.16;5043168;28;20033;-88
2023/12/16 03:59:14;;;;;;;4.50;2.50;;;;;;;1.86;100.00;101356.09;5049258;28;20093;-87
2023/12/16 04:01:45;;;;;;;5.22;2.90;;;;;;;1.91;100.00;101340.72;5052685;28;20398;-86
2023/12/16 04:04:11;;;;;;;4.60;2.33;;;;;;;1.91;100.00;101330.22;5051917;28;20432;-86
2023/12/16 04:06:36;;;;;;;5.55;2.65;;;;;;;1.96;100.00;101359.59;5051269;28;20036;-86
2023/12/16 04:09:02;;;;;;;4.05;2.17;;;;;;;1.91;100.00;101364.41;5039621;28;20030;-86
2023/12/16 04:11:27;;;;;;;4.35;2.35;;;;;;;1.97;100.00;101370.94;5031648;28;20026;-86
2023/12/16 04:13:53;;;;;;;4.75;2.30;;;;;;;1.79;100.00;101368.91;5030581;28;20037;-85
2023/12/16 04:16:19;;;;;;;4.80;2.33;;;;;;;1.96;100.00;101364.00;5034090;28;20028;-84
2023/12/16 04:18:45;;;;;;;5.07;2.33;;;;;;;1.72;100.00;101338.00;5048110;28;20086;-85
2023/12/16 04:21:10;;;;;;;4.38;2.30;;;;;;;2.05;100.00;101386.09;5050342;28;20032;-85
2023/12/16 04:23:35;;;;;;;7.72;2.55;;;;;;;1.66;100.00;101354.31;5050591;28;20116;-85
2023/12/16 04:26:01;;;;;;;5.03;2.70;;;;;;;1.90;100.00;101378.53;5050468;28;20120;-84
2023/12/16 04:28:27;;;;;;;4.60;2.38;;;;;;;1.61;100.00;101359.94;5045545;28;20112;-86
2023/12/16 04:30:52;;;;;;;4.57;2.15;;;;;;;1.86;100.00;101387.66;5030379;28;20032;-86
2023/12/16 04:33:17;;;;;;;4.93;2.25;;;;;;;1.76;100.00;101392.03;5030376;28;20034;-87
2023/12/16 04:35:43;;;;;;;6.20;2.67;;;;;;;2.06;100.00;101396.47;5030336;28;20053;-85
2023/12/16 04:38:09;;;;;;;5.32;2.55;;;;;;;1.66;100.00;101372.72;5046594;28;20055;-86
2023/12/16 04:40:34;;;;;;;4.85;2.63;;;;;;;1.71;100.00;101373.16;5050144;28;20024;-84
2023/12/16 04:43:00;;;;;;;4.18;2.17;;;;;;;1.87;100.00;101389.31;5050763;28;20082;-86
2023/12/16 04:45:25;;;;;;;4.63;2.40;;;;;;;1.97;100.00;101394.63;5049974;28;20782;-84
2023/12/16 04:47:51;;;;;;;4.45;2.42;;;;;;;2.12;100.00;101398.56;5040887;28;20041;-84
2023/12/16 04:50:17;;;;;;;5.03;2.50;;;;;;;1.69;100.00;101359.28;5047590;28;20037;-85
2023/12/16 04:52:43;;;;;;;3.90;2.17;;;;;;;2.07;100.00;101402.59;5050116;28;20374;-85
2023/12/16 04:55:10;;;;;;;4.22;2.22;;;;;;;1.90;100.00;101383.81;5049914;28;20040;-85
2023/12/16 04:57:35;;;;;;;5.70;2.53;;;;;;;2.09;100.00;101419.06;5049834;28;20037;-85
2023/12/16 05:00:01;;;;;;;7.97;3.30;;;;;;;2.01;100.00;101420.53;5050035;28;20040;-86
2023/12/16 05:02:27;;;;;;;6.63;3.05;;;;;;;1.80;100.00;101417.09;5050059;28;20449;-85
2023/12/16 05:04:52;;;;;;;21.05;11.02;;;;;;;1.99;100.00;101430.38;5050257;28;20039;-84
2023/12/16 05:07:18;;;;;;;41.53;16.90;;;;;;;1.84;100.00;101430.81;5045810;28;20101;-84
2023/12/16 05:09:43;;;;;;;37.55;18.02;;;;;;;1.85;100.00;101421.97;5043720;28;20028;-84
2023/12/16 05:12:09;;;;;;;22.67;12.38;;;;;;;1.65;100.00;101447.28;5051649;28;20132;-84
2023/12/16 05:14:34;;;;;;;10.85;5.78;;;;;;;1.79;100.00;101444.34;5054128;28;20028;-85
2023/12/16 05:17:00;;;;;;;14.85;10.02;;;;;;;1.72;100.00;101453.72;5053852;28;20033;-85
2023/12/16 05:19:26;;;;;;;16.35;10.52;;;;;;;1.44;100.00;101439.38;5050446;28;20040;-83
2023/12/16 05:21:51;;;;;;;11.07;8.25;;;;;;;1.52;100.00;101448.31;5054094;28;20028;-84
2023/12/16 05:24:18;;;;;;;14.85;9.20;;;;;;;1.62;100.00;101453.66;5053328;28;20044;-83
2023/12/16 05:26:44;;;;;;;11.43;7.75;;;;;;;1.71;100.00;101452.88;5053777;28;20032;-85
2023/12/16 05:29:09;;;;;;;12.93;6.93;;;;;;;1.56;100.00;101454.97;5051880;28;20033;-84
2023/12/16 05:31:34;;;;;;;15.25;7.63;;;;;;;1.75;100.00;101454.28;5052987;28;20124;-83
2023/12/16 05:34:00;;;;;;;12.88;6.78;;;;;;;1.52;100.00;101419.38;5052882;28;20025;-84
2023/12/16 05:36:25;;;;;;;23.23;11.63;;;;;;;1.66;100.00;101449.81;5053290;28;20094;-84
2023/12/16 05:38:51;;;;;;;11.98;6.28;;;;;;;1.75;100.00;101450.84;5051450;28;20044;-85
2023/12/16 05:41:16;;;;;;;13.88;6.90;;;;;;;1.75;100.00;101453.47;5052666;28;20086;-83
2023/12/16 05:43:41;;;;;;;11.77;6.32;;;;;;;1.51;100.00;101449.28;5038705;28;20124;-84
2023/12/16 05:46:07;;;;;;;11.52;5.47;;;;;;;1.56;100.00;101431.31;5032523;28;20493;-83
2023/12/16 05:48:35;;;;;;;13.88;7.32;;;;;;;1.77;100.00;101468.16;5043649;28;20111;-84
2023/12/16 05:51:00;;;;;;;13.50;7.50;;;;;;;1.69;100.00;101464.50;5032604;28;20044;-83
2023/12/16 05:53:26;;;;;;;13.23;7.28;;;;;;;1.55;100.00;101455.94;5032560;28;20044;-84
2023/12/16 05:55:51;;;;;;;14.82;8.35;;;;;;;1.65;100.00;101455.19;5032516;28;20025;-83
2023/12/16 05:58:17;;;;;;;23.58;10.68;;;;;;;1.63;100.00;101470.25;5039954;28;20033;-84
2023/12/16 06:00:42;;;;;;;15.10;8.32;;;;;;;1.51;100.00;101449.28;5038390;28;20033;-85
2023/12/16 06:03:07;;;;;;;12.45;7.30;;;;;;;1.70;100.00;101503.00;5032494;28;20083;-83
2023/12/16 06:05:33;;;;;;;11.77;6.38;;;;;;;1.67;100.00;101492.72;5032773;28;20037;-84
2023/12/16 06:07:58;;;;;;;13.30;7.28;;;;;;;1.68;100.00;101507.53;5036093;28;20025;-84
2023/12/16 06:10:24;;;;;;;11.90;6.78;;;;;;;1.59;100.00;101511.72;5041693;28;20044;-84
2023/12/16 06:12:49;;;;;;;9.43;5.90;;;;;;;1.47;100.00;101491.69;5032694;28;20029;-84
2023/12/16 06:15:14;;;;;;;11.00;6.72;;;;;;;1.45;100.00;101483.97;5032602;28;20029;-83
2023/12/16 06:17:40;;;;;;;9.85;5.22;;;;;;;1.59;100.00;101530.13;5032980;28;20028;-84
2023/12/16 06:20:06;;;;;;;15.23;7.30;;;;;;;1.64;100.00;101535.03;5048840;28;20090;-83
2023/12/16 06:22:31;;;;;;;16.40;7.45;;;;;;;1.32;100.00;101509.53;5052006;28;20437;-85
2023/12/16 06:24:58;;;;;;;12.00;5.82;;;;;;;1.42;100.00;101531.50;5051509;28;20030;-86
2023/12/16 06:27:23;;;;;;;10.45;6.18;;;;;;;1.65;100.00;101548.06;5053700;28;20021;-84
2023/12/16 06:29:48;;;;;;;10.43;4.95;;;;;;;1.67;100.00;101545.31;5048754;28;20029;-84
2023/12/16 06:32:14;;;;;;;13.20;7.22;;;;;;;1.54;100.00;101546.28;5032168;28;20144;-84
2023/12/16 06:34:39;;;;;;;13.88;8.77;;;;;;;1.64;100.00;101559.53;5033177;28;20056;-84
2023/12/16 06:37:05;;;;;;;11.23;6.30;;;;;;;1.66;100.00;101568.16;5032284;28;20041;-85
2023/12/16 06:39:30;;;;;;;12.82;8.25;;;;;;;1.75;100.00;101574.44;5044845;28;20075;-85
2023/12/16 06:41:56;;;;;;;14.85;8.18;;;;;;;1.63;100.00;101575.44;5033541;28;20064;-86
2023/12/16 06:44:22;;;;;;;15.30;9.20;;;;;;;1.51;100.00;101567.59;5032267;28;20124;-84
2023/12/16 06:46:47;;;;;;;13.43;7.72;;;;;;;1.64;100.00;101587.66;5032081;28;20037;-85
2023/12/16 06:49:12;;;;;;;12.80;7.00;;;;;;;1.66;100.00;101593.63;5038848;28;20120;-86
2023/12/16 06:51:38;;;;;;;10.85;6.00;;;;;;;1.65;100.00;101589.31;5043284;28;20037;-85
2023/12/16 06:54:04;;;;;;;14.93;8.18;;;;;;;1.71;100.00;101604.59;5035866;28;20112;-86
2023/12/16 06:56:29;;;;;;;11.85;7.05;;;;;;;1.88;100.00;101601.44;5046312;28;20386;-86
2023/12/16 06:58:54;;;;;;;18.17;9.68;;;;;;;1.72;100.00;101608.91;5047606;28;20075;-86
2023/12/16 07:01:23;;;;;;;22.52;10.32;;;;;;;1.84;100.00;101621.06;5052469;28;20111;-86
2023/12/16 07:03:48;;;;;;;18.42;7.15;;;;;;;2.05;100.00;101622.91;5039928;28;20025;-86
2023/12/16 07:06:13;;;;;;;18.23;8.95;;;;;;;1.83;100.00;101618.56;5031111;28;20051;-84
2023/12/16 07:08:40;;;;;;;21.75;10.65;;;;;;;1.94;100.00;101627.25;5040084;28;20032;-85
2023/12/16 07:11:06;;;;;;;16.02;9.15;;;;;;;1.82;100.00;101615.09;5047359;28;20486;-86
2023/12/16 07:13:31;;;;;;;14.25;8.23;;;;;;;1.78;100.00;101603.16;5030905;28;20120;-84
2023/12/16 07:15:57;;;;;;;12.80;5.95;;;;;;;2.18;100.00;101644.63;5032624;28;20048;-86
2023/12/16 07:18:22;;;;;;;9.98;5.75;;;;;;;2.24;100.00;101638.03;5031731;28;20053;-84
2023/12/16 07:20:48;;;;;;;12.35;7.60;;;;;;;2.11;100.00;101648.75;5043497;28;20056;-84
2023/12/16 07:23:13;;;;;;;10.43;6.70;;;;;;;2.09;100.00;101650.66;5031979;28;20113;-86
2023/12/16 07:25:38;;;;;;;12.18;6.68;;;;;;;2.13;100.00;101641.56;5031171;28;20033;-85
2023/12/16 07:28:04;;;;;;;29.23;18.35;;;;;;;2.27;100.00;101653.56;5032500;28;20033;-86
2023/12/16 07:30:29;;;;;;;12.00;9.40;;;;;;;2.27;100.00;101632.50;5044370;28;20037;-89
2023/12/16 07:32:55;;;;;;;9.70;7.95;;;;;;;2.08;100.00;101646.34;5049619;28;20140;-89
2023/12/16 07:35:20;;;;;;;7.63;4.53;;;;;;;1.87;100.00;101625.25;5048599;28;20016;-87
2023/12/16 07:37:46;;;;;;;7.47;4.40;;;;;;;1.73;100.00;101598.22;5049470;28;20782;-85
2023/12/16 07:40:11;;;;;;;6.90;3.80;;;;;;;1.81;100.00;101623.94;5044584;28;20041;-84
2023/12/16 07:42:40;;;;;;;6.60;3.90;;;;;;;2.10;100.00;101637.34;5049222;28;20073;-84
2023/12/16 07:45:07;;;;;;;23.95;9.18;;;;;;;1.96;100.00;101651.66;5050506;28;20029;-84
2023/12/16 07:47:32;;;;;;;31.25;13.70;;;;;;;2.20;100.00;101664.59;5050175;28;20025;-87
2023/12/16 07:49:58;;;;;;;8.70;3.90;;;;;;;2.21;100.00;101666.28;5050328;28;20056;-86
2023/12/16 07:52:24;;;;;;;8.38;3.53;;;;;;;2.09;100.00;101666.44;5033590;28;20037;-84
2023/12/16 07:54:50;;;;;;;9.85;4.20;;;;;;;2.16;100.00;101654.44;5030865;28;20071;-86
2023/12/16 07:57:15;;;;;;;4.60;3.00;;;;;;;2.32;100.00;101669.84;5030624;28;20090;-87
2023/12/16 07:59:41;;;;;;;5.38;2.97;;;;;;;2.34;100.00;101681.91;5036965;28;20115;-86
2023/12/16 08:02:08;;;;;;;5.43;2.30;;;;;;;2.12;100.00;101682.81;5047823;28;20044;-87
2023/12/16 08:04:34;;;;;;;5.60;2.67;;;;;;;2.10;100.00;101683.88;5050705;28;20025;-88
2023/12/16 08:07:00;;;;;;;23.20;12.98;;;;;;;2.02;100.00;101671.34;5050372;28;20040;-87
2023/12/16 08:09:25;;;;;;;13.43;7.75;;;;;;;1.98;100.00;101676.03;5050455;28;20037;-86
2023/12/16 08:11:54;;;;;;;8.38;5.40;;;;;;;2.15;100.00;101671.22;5047627;28;20032;-85
2023/12/16 08:14:20;;;;;;;22.50;14.07;;;;;;;2.37;100.00;101700.09;5041083;28;20021;-86
2023/12/16 08:16:45;;;;;;;16.52;11.57;;;;;;;2.00;100.00;101668.88;5030390;28;20083;-83
2023/12/16 08:19:10;;;;;;;8.00;5.85;;;;;;;2.16;100.00;101696.56;5036313;28;20067;-85
2023/12/16 08:21:36;;;;;;;9.93;7.03;;;;;;;2.12;100.00;101677.53;5044102;28;20107;-83
2023/12/16 08:24:02;;;;;;;8.75;6.00;;;;;;;2.20;100.00;101709.34;5049919;28;20078;-84
2023/12/16 08:26:27;;;;;;;9.48;5.50;;;;;;;2.11;100.00;101696.09;5049717;28;20079;-85
2023/12/16 08:28:53;;;;;;;8.60;4.18;;;;;;;1.97;100.00;101663.00;5049356;28;20401;-85
2023/12/16 08:31:18;;;;;;;11.85;6.82;;;;;;;1.83;100.00;101655.38;5048241;28;20049;-85
2023/12/16 08:33:44;;;;;;;7.30;4.68;;;;;;;1.96;100.00;101717.44;5050003;28;20025;-85
2023/12/16 08:36:09;;;;;;;7.22;3.63;;;;;;;1.93;100.00;101703.66;5030327;28;20045;-85
2023/12/16 08:38:39;;;;;;;7.53;4.75;;;;;;;2.11;100.00;101736.41;5044889;28;20028;-86
2023/12/16 08:41:10;;;;;;;54.50;21.08;;;;;;;2.00;100.00;101708.34;5040074;28;20037;-84
2023/12/16 08:43:36;;;;;;;26.50;12.57;;;;;;;2.14;100.00;101706.38;5049853;28;20051;-84
2023/12/16 08:46:03;;;;;;;6.07;3.83;;;;;;;2.05;100.00;101686.06;5049424;28;20025;-83
2023/12/16 08:48:28;;;;;;;6.75;3.30;;;;;;;1.90;100.00;101725.81;5054139;28;20474;-85
2023/12/16 08:50:57;;;;;;;7.05;4.63;;;;;;;1.78;100.00;101695.22;5050224;28;20040;-83
2023/12/16 08:53:23;;;;;;;6.88;4.50;;;;;;;2.07;100.00;101726.25;5034550;28;20030;-84
2023/12/16 08:55:49;;;;;;;13.57;6.50;;;;;;;1.98;100.00;101704.97;5033808;28;20034;-85
2023/12/16 08:58:14;;;;;;;9.48;5.13;;;;;;;1.99;100.00;101711.91;5033582;28;20037;-85
2023/12/16 09:00:40;;;;;;;10.30;5.43;;;;;;;1.89;100.00;101687.28;5044136;28;20039;-85
2023/12/16 09:03:06;;;;;;;9.10;5.70;;;;;;;1.91;100.00;101687.16;5051269;28;20093;-84
2023/12/16 09:05:31;;;;;;;8.30;5.22;;;;;;;2.14;100.00;101696.66;5042555;28;20033;-83
2023/12/16 09:07:59;;;;;;;7.88;5.47;;;;;;;2.26;100.00;101713.28;5053113;28;20028;-84
2023/12/16 09:10:24;;;;;;;8.32;5.13;;;;;;;2.30;100.00;101701.53;5039777;28;20029;-84
2023/12/16 09:12:49;;;;;;;10.18;6.70;;;;;;;2.19;100.00;101685.78;5041015;28;20037;-83
2023/12/16 09:15:16;;;;;;;9.50;5.43;;;;;;;2.19;100.00;101722.66;5032780;28;20061;-82
2023/12/16 09:17:42;;;;;;;8.82;5.03;;;;;;;2.35;100.00;101727.50;5032868;28;20039;-84
2023/12/16 09:20:07;;;;;;;10.60;5.90;;;;;;;2.20;100.00;101721.66;5035338;28;20037;-84
2023/12/16 09:22:33;;;;;;;10.25;6.18;;;;;;;2.01;100.00;101707.34;5050662;28;20502;-85
2023/12/16 09:24:58;;;;;;;11.13;5.60;;;;;;;1.92;100.00;101692.31;5053351;28;20036;-83
2023/12/16 09:27:24;;;;;;;9.05;5.65;;;;;;;1.80;100.00;101680.97;5052804;28;20347;-83
2023/12/16 09:29:49;;;;;;;10.52;6.97;;;;;;;2.04;100.00;101684.38;5052736;28;20139;-83
2023/12/16 09:32:15;;;;;;;24.05;15.02;;;;;;;2.08;100.00;101683.19;5035909;28;20057;-84
2023/12/16 09:34:42;;;;;;;20.35;12.60;;;;;;;2.12;100.00;101676.72;5032550;28;20025;-84
2023/12/16 09:37:08;;;;;;;23.65;17.00;;;;;;;2.47;100.00;101708.06;5032937;28;20087;-85
2023/12/16 09:39:34;;;;;;;16.25;10.52;;;;;;;2.52;100.00;101684.00;5032768;28;20057;-84
2023/12/16 09:42:02;;;;;;;17.27;10.70;;;;;;;2.62;100.00;101700.72;5046027;28;20040;-85
2023/12/16 09:44:33;;;;;;;34.72;20.15;;;;;;;2.79;100.00;101712.47;5033027;28;20025;-86
2023/12/16 09:46:59;;;;;;;28.50;18.30;;;;;;;2.52;100.00;101689.28;5032984;28;20482;-87
2023/12/16 09:49:26;;;;;;;33.38;21.17;;;;;;;2.56;100.00;101703.84;5033450;28;20025;-85
2023/12/16 09:51:52;;;;;;;20.17;13.35;;;;;;;2.68;100.00;101710.75;5042902;28;20052;-85
2023/12/16 09:54:18;;;;;;;20.75;13.40;;;;;;;2.65;100.00;101726.78;5052970;28;20025;-85
2023/12/16 09:56:48;;;;;;;19.42;11.40;;;;;;;2.61;100.00;101709.56;5053313;28;20554;-84
2023/12/16 09:59:16;;;;;;;25.95;16.77;;;;;;;2.62;100.00;101716.53;5053099;28;20028;-86
2023/12/16 10:01:49;;;;;;;21.15;13.05;;;;;;;2.51;100.00;101698.13;5053230;28;20040;-86
2023/12/16 10:04:14;;;;;;;37.13;21.25;;;;;;;2.68;100.00;101716.00;5053872;28;20036;-86
2023/12/16 10:06:40;;;;;;;28.88;18.63;;;;;;;2.86;100.00;101718.06;5053718;28;20393;-87
2023/12/16 10:09:05;;;;;;;21.15;14.38;;;;;;;2.67;100.00;101730.13;5053369;28;20029;-86
2023/12/16 10:11:39;;;;;;;24.88;15.70;;;;;;;2.78;100.00;101722.19;5060344;28;20044;-87
2023/12/16 10:14:05;;;;;;;21.17;13.52;;;;;;;2.85;100.00;101717.25;5048568;28;20060;-86
2023/12/16 10:16:30;;;;;;;24.08;15.75;;;;;;;3.12;100.00;101729.91;5057793;28;20040;-87
2023/12/16 10:18:59;;;;;;;28.33;18.92;;;;;;;3.11;100.00;101686.06;5045625;28;20105;-87
2023/12/16 10:21:26;;;;;;;68.25;34.40;;;;;;;3.33;100.00;101715.84;5061292;28;20036;-86
2023/12/16 10:23:52;;;;;;;22.40;15.05;;;;;;;2.76;100.00;101674.06;5057905;28;20026;-87
2023/12/16 10:26:18;;;;;;;19.05;13.02;;;;;;;2.59;100.00;101690.41;5062173;28;20029;-87
2023/12/16 10:28:47;;;;;;;22.88;15.93;;;;;;;3.14;100.00;101722.69;5060578;28;20060;-87
2023/12/16 10:31:14;;;;;;;20.58;12.95;;;;;;;3.10;100.00;101718.66;5059494;28;20037;-88
2023/12/16 10:33:40;;;;;;;16.73;11.18;;;;;;;3.16;100.00;101717.31;5065110;28;20104;-88
2023/12/16 10:36:07;;;;;;;16.75;11.13;;;;;;;3.36;100.00;101715.63;5058347;28;20089;-88
2023/12/16 10:38:32;;;;;;;17.60;10.60;;;;;;;3.28;100.00;101736.53;5060526;28;20048;-90
2023/12/16 10:40:58;;;;;;;16.98;9.90;;;;;;;3.33;100.00;101726.41;5068511;28;20025;-89
2023/12/16 10:43:23;;;;;;;21.38;10.85;;;;;;;3.43;100.00;101732.56;5059209;28;20044;-87
2023/12/16 10:45:50;;;;;;;26.40;19.92;;;;;;;3.36;100.00;101718.25;5042671;28;20045;-87
2023/12/16 10:48:16;;;;;;;18.83;11.23;;;;;;;3.41;100.00;101718.69;5034676;28;20039;-86
2023/12/16 10:50:47;;;;;;;43.47;38.38;;;;;;;3.38;100.00;101713.69;5033241;28;20128;-88
2023/12/16 10:53:23;;;;;;;48.90;41.25;;;;;;;3.39;100.00;101721.47;5040086;28;20036;-87
2023/12/16 10:55:56;;;;;;;40.83;32.60;;;;;;;3.29;100.00;101714.44;5052845;28;20036;-86
2023/12/16 10:58:25;;;;;;;21.58;13.95;;;;;;;3.52;100.00;101726.53;5052712;28;20028;-86
2023/12/16 11:00:52;;;;;;;19.02;13.32;;;;;;;3.49;100.00;101716.22;5051682;28;20588;-86
2023/12/16 11:03:28;;;;;;;35.22;27.42;;;;;;;3.52;100.00;101705.41;5044142;28;20028;-86
2023/12/16 11:06:00;;;;;;;130.30;83.78;;;;;;;3.20;100.00;101693.19;5049683;28;20029;-87
2023/12/16 11:08:27;;;;;;;27.98;20.83;;;;;;;3.15;100.00;101713.84;5051179;28;20513;-86
2023/12/16 11:10:54;;;;;;;30.63;22.42;;;;;;;3.27;100.00;101696.16;5049066;28;20025;-85
2023/12/16 11:13:21;;;;;;;17.88;9.38;;;;;;;3.24;100.00;101700.84;5043623;28;20032;-87